MapRunner: Ruth Ker - 42 runs; PB: 5:13 Pace; 660 Points
Event Name Event Date Distance (km) Pace (mins/km) OverallPosition AgeCatPosition Points
Kiplin VOE Medium PXAC 2021-04-07 4.28 6:43 -- -- --
HarewellEaster21 PXASV PZ ScoreV120 2021-04-02 13.03 8:04 SW:1 W50-54:1 320
HookstoneShort PXAS PZ0423032021 ScoreV45 2021-03-23 6.6 6:37 SW:1 W50-54:1 560
HookstoneLong PXAS PZ0423032021 ScoreV60 2021-03-23 6.58 6:40 SW:1 W50-54:1 480
Addingham PXAS ScoreV60 start anywhere 2021-03-09 8.42 6:52 SW:1 W50-54:1 600
WetherbyEast PZ0409032021 PXAS ScoreV60 2021-03-09 10.29 5:48 SW:1 W50-54:1 540
RiponEast PZ0423022021 PXAS ScoreV45 2021-02-23 7.15 5:36 SW:1 W50-54:1 540
RossettGreen PZ0409022021 PXAS ScoreV45 2021-02-09 8.15 5:31 SW:1 W50-54:1 390 (incl - 10)
RossettGreen PZ0409022021 PXAS ScoreV45 2021-02-09 8.18 5:51 SW:2 W50-54:2 350 (incl - 30)
KnaresboroughFarNorth PZ0426012021 PXAS ScoreV45 2021-01-26 7.27 5:51 SW:1 W50-54:1 600
HookstoneChase PZ0412012021 PXAS ScoreV45 2021-01-12 6.99 5:13 SW:1 W50-54:1 600
HookstoneChase PZ0412012021 PXAS ScoreV45 2021-01-12 6.69 5:50 SW:2 W50-54:2 600
SmelthousesNewYear PXASV PZ ScoreV120 2021-01-01 6.18 13:14 SW:9 W50-54:1 140
Colton Long PXAC 2020-12-14 7.81 7:05 -- -- --
KnaresboroughCentral PZ0416122020 PXAS ScoreV45 2020-12-09 7 6:07 SW:1 W50-54:1 520
RiponNorth PZ0418112020 PXAS ScoreV45 2020-11-18 9.24 5:46 SW:1 W50-54:1 510 (incl - 90)
HarrogateBilton PZ0416122020 PXAS ScoreV45 2020-10-21 7.79 5:41 SW:1 W50-54:1 600
Crossgates PXAS ScoreV45 PZ2331122020 2020-10-20 7.18 6:13 SW:3 W50-54:1 300
HarrogateSE PZ0416122020 PXAS ScoreV45 2020-10-07 7.2 5:34 SW:1 W50-54:1 580
Wrose Brow Long Course PXAC 2020-10-05 6.63 6:42 -- -- --
Cow and Calf Long PZ2109082020 PXAC 2020-07-28 8.08 8:59 -- -- --
HarrogateEast PZ0422072020 PXAS ScoreV45 2020-07-22 5.9 5:37 SW:1 W50-54:1 600
Inch Sprintelope Short PXAC PZ0729072020 2020-07-21 3.52 5:25 -- -- --
RiponWestVer2 PZ0415072020 PXAS ScoreV45 2020-07-15 6.38 5:38 SW:1 W50-54:1 540
KnaresboroughNE PZ0408072020 PXAS ScoreV45 2020-07-08 8.24 5:30 SW:1 W50-54:1 590 (incl - 10)
Bramley Long PZ2114072020 PXAC 2020-07-05 5.33 6:08 -- -- --
HarrogateColdBath PXAS ScoreV45 2020-07-01 7.36 6:02 SW:1 W50-54:1 420
Wimbledon Common Jul20 PXAC PZ 2020-07-01 7.79 7:21 -- -- --
HarrogateKnoxHill PZ0424062020 PXAS ScoreV45 2020-06-24 7.04 6:05 SW:2 W50-54:1 600
Holt Park Long PZ2130062020 PXAC 2020-06-19 5.37 5:55 -- -- --
Pannal PZ0417062020 PXAS ScoreV45 2020-06-17 6.09 6:03 SW:1 W50-54:1 600
Ikley Moor Control Pick PZ2123062020 PXAC 2020-06-16 2.37 10:00 -- -- --
Ilkley Long PZ2123062020 PXAC 2020-06-13 4.68 6:34 -- -- --
HarrogateSW PZ0410062020 PXAS ScoreV45 2020-06-10 7.19 5:42 SW:3 W50-54:2 580
HarrogateSW PZ0410062020 PXAS ScoreV45 2020-06-10 7.6 5:44 SW:4 W50-54:3 580
KnaresboroughSE PZ0403062020 PXAS ScoreV45 2020-06-03 7.13 5:49 SW:2 W50-54:1 400
Menston HR start anywhere PXAS ScoreV60 2020-05-25 9.21 5:43 SW:1 W50-54:1 660
HarrogateValleyGardens PXAS ScoreV45 2020-05-25 2.56 5:38 SW:1 W50-54:1 400
HarrogateValleyGardens PXAS ScoreV45 2020-05-25 2.59 6:10 SW:11 W50-54:3 380
HookstoneChase PXASV 6.59 6:21 -- -- --